sensor_id;sensor_type;location;lat;lon;timestamp;pressure;altitude;pressure_sealevel;temperature;humidity
6433;BME280;3249;42.690;23.260;2023-11-22T00:00:32;93511.84;;;6.36;100.00
6433;BME280;3249;42.690;23.260;2023-11-22T00:06:43;93512.06;;;6.35;100.00
6433;BME280;3249;42.690;23.260;2023-11-22T00:09:13;93496.56;;;6.05;100.00
6433;BME280;3249;42.690;23.260;2023-11-22T00:11:48;93507.25;;;6.20;100.00
6433;BME280;3249;42.690;23.260;2023-11-22T00:14:17;93511.19;;;6.47;100.00
6433;BME280;3249;42.690;23.260;2023-11-22T00:16:46;93511.06;;;6.60;100.00
6433;BME280;3249;42.690;23.260;2023-11-22T00:19:16;93512.72;;;6.48;100.00
6433;BME280;3249;42.690;23.260;2023-11-22T00:21:50;93513.88;;;6.52;100.00
6433;BME280;3249;42.690;23.260;2023-11-22T00:24:20;93508.81;;;6.46;100.00
6433;BME280;3249;42.690;23.260;2023-11-22T00:26:49;93501.22;;;6.64;100.00
6433;BME280;3249;42.690;23.260;2023-11-22T00:29:18;93502.28;;;6.74;100.00
6433;BME280;3249;42.690;23.260;2023-11-22T00:31:47;93508.41;;;6.91;100.00
6433;BME280;3249;42.690;23.260;2023-11-22T00:34:16;93508.41;;;6.91;100.00
6433;BME280;3249;42.690;23.260;2023-11-22T00:36:46;93519.63;;;6.90;100.00
6433;BME280;3249;42.690;23.260;2023-11-22T00:39:17;93506.47;;;6.87;100.00
6433;BME280;3249;42.690;23.260;2023-11-22T00:41:48;93524.56;;;6.85;100.00
6433;BME280;3249;42.690;23.260;2023-11-22T00:44:18;93516.50;;;6.88;100.00
6433;BME280;3249;42.690;23.260;2023-11-22T00:46:47;93507.19;;;6.94;100.00
6433;BME280;3249;42.690;23.260;2023-11-22T00:49:16;93518.41;;;6.93;100.00
6433;BME280;3249;42.690;23.260;2023-11-22T00:51:45;93488.69;;;6.31;100.00
6433;BME280;3249;42.690;23.260;2023-11-22T00:54:17;93524.44;;;6.62;100.00
6433;BME280;3249;42.690;23.260;2023-11-22T00:56:46;93502.28;;;6.74;100.00
6433;BME280;3249;42.690;23.260;2023-11-22T00:59:15;93501.84;;;6.77;100.00
6433;BME280;3249;42.690;23.260;2023-11-22T01:01:45;93500.78;;;6.85;100.00
6433;BME280;3249;42.690;23.260;2023-11-22T01:04:14;93497.31;;;6.79;100.00
6433;BME280;3249;42.690;23.260;2023-11-22T01:06:43;93496.97;;;6.76;100.00
6433;BME280;3249;42.690;23.260;2023-11-22T01:09:13;93478.19;;;6.82;100.00
6433;BME280;3249;42.690;23.260;2023-11-22T01:11:46;93482.59;;;6.93;100.00
6433;BME280;3249;42.690;23.260;2023-11-22T01:14:15;93483.16;;;6.95;100.00
6433;BME280;3249;42.690;23.260;2023-11-22T01:16:45;93469.75;;;6.99;100.00
6433;BME280;3249;42.690;23.260;2023-11-22T01:19:15;93483.88;;;7.02;100.00
6433;BME280;3249;42.690;23.260;2023-11-22T01:21:45;93493.81;;;7.10;100.00
6433;BME280;3249;42.690;23.260;2023-11-22T01:24:14;93492.19;;;7.15;100.00
6433;BME280;3249;42.690;23.260;2023-11-22T01:26:46;93486.53;;;7.13;100.00
6433;BME280;3249;42.690;23.260;2023-11-22T01:29:15;93488.00;;;7.21;100.00
6433;BME280;3249;42.690;23.260;2023-11-22T01:31:47;93477.22;;;7.01;100.00
6433;BME280;3249;42.690;23.260;2023-11-22T01:34:16;93474.06;;;6.99;100.00
6433;BME280;3249;42.690;23.260;2023-11-22T01:36:45;93461.34;;;6.92;100.00
6433;BME280;3249;42.690;23.260;2023-11-22T01:39:18;93461.06;;;6.64;100.00
6433;BME280;3249;42.690;23.260;2023-11-22T01:41:50;93458.88;;;6.86;100.00
6433;BME280;3249;42.690;23.260;2023-11-22T01:44:20;93455.53;;;7.03;100.00
6433;BME280;3249;42.690;23.260;2023-11-22T01:46:50;93459.56;;;7.11;100.00
6433;BME280;3249;42.690;23.260;2023-11-22T01:49:19;93457.44;;;7.08;100.00
6433;BME280;3249;42.690;23.260;2023-11-22T01:51:49;93461.22;;;7.05;100.00
6433;BME280;3249;42.690;23.260;2023-11-22T01:54:20;93462.84;;;7.00;100.00
6433;BME280;3249;42.690;23.260;2023-11-22T01:56:53;93458.06;;;6.85;100.00
6433;BME280;3249;42.690;23.260;2023-11-22T01:59:23;93459.66;;;6.86;100.00
6433;BME280;3249;42.690;23.260;2023-11-22T02:01:53;93465.63;;;6.80;100.00
6433;BME280;3249;42.690;23.260;2023-11-22T02:04:22;93461.78;;;6.71;100.00
6433;BME280;3249;42.690;23.260;2023-11-22T02:06:52;93458.22;;;6.72;100.00
6433;BME280;3249;42.690;23.260;2023-11-22T02:09:22;93448.97;;;6.53;100.00
6433;BME280;3249;42.690;23.260;2023-11-22T02:11:54;93446.31;;;6.66;100.00
6433;BME280;3249;42.690;23.260;2023-11-22T02:14:23;93443.25;;;6.76;100.00
6433;BME280;3249;42.690;23.260;2023-11-22T02:16:52;93440.47;;;6.77;100.00
6433;BME280;3249;42.690;23.260;2023-11-22T02:19:21;93426.63;;;6.85;100.00
6433;BME280;3249;42.690;23.260;2023-11-22T02:21:50;93446.22;;;6.91;100.00
6433;BME280;3249;42.690;23.260;2023-11-22T02:24:23;93424.06;;;6.85;100.00
6433;BME280;3249;42.690;23.260;2023-11-22T02:26:53;93444.09;;;6.88;100.00
6433;BME280;3249;42.690;23.260;2023-11-22T02:29:22;93454.53;;;6.86;100.00
6433;BME280;3249;42.690;23.260;2023-11-22T02:31:51;93456.44;;;6.91;100.00
6433;BME280;3249;42.690;23.260;2023-11-22T02:34:20;93452.34;;;6.72;100.00
6433;BME280;3249;42.690;23.260;2023-11-22T02:36:49;93448.50;;;6.81;100.00
6433;BME280;3249;42.690;23.260;2023-11-22T02:39:22;93440.81;;;6.45;100.00
6433;BME280;3249;42.690;23.260;2023-11-22T02:41:54;93440.28;;;6.36;100.00
6433;BME280;3249;42.690;23.260;2023-11-22T02:44:24;93438.19;;;6.51;100.00
6433;BME280;3249;42.690;23.260;2023-11-22T02:46:53;93443.31;;;6.69;100.00
6433;BME280;3249;42.690;23.260;2023-11-22T02:49:23;93447.91;;;6.79;100.00
6433;BME280;3249;42.690;23.260;2023-11-22T02:51:52;93434.00;;;6.75;100.00
6433;BME280;3249;42.690;23.260;2023-11-22T02:54:25;93445.72;;;7.00;100.00
6433;BME280;3249;42.690;23.260;2023-11-22T02:56:54;93451.03;;;6.99;100.00
6433;BME280;3249;42.690;23.260;2023-11-22T02:59:23;93444.50;;;7.03;100.00
6433;BME280;3249;42.690;23.260;2023-11-22T03:01:52;93446.00;;;6.92;100.00
6433;BME280;3249;42.690;23.260;2023-11-22T03:04:22;93448.00;;;6.72;100.00
6433;BME280;3249;42.690;23.260;2023-11-22T03:06:52;93448.94;;;6.96;100.00
6433;BME280;3249;42.690;23.260;2023-11-22T03:09:23;93442.53;;;6.69;100.00
6433;BME280;3249;42.690;23.260;2023-11-22T03:11:53;93438.78;;;6.71;100.00
6433;BME280;3249;42.690;23.260;2023-11-22T03:14:22;93449.44;;;6.86;100.00
6433;BME280;3249;42.690;23.260;2023-11-22T03:16:51;93414.84;;;6.48;100.00
6433;BME280;3249;42.690;23.260;2023-11-22T03:19:21;93446.50;;;6.83;100.00
6433;BME280;3249;42.690;23.260;2023-11-22T03:21:50;93451.28;;;6.79;100.00
6433;BME280;3249;42.690;23.260;2023-11-22T03:24:19;93456.81;;;6.94;100.00
6433;BME280;3249;42.690;23.260;2023-11-22T03:26:51;93459.59;;;6.93;100.00
6433;BME280;3249;42.690;23.260;2023-11-22T03:29:22;93459.66;;;6.86;100.00
6433;BME280;3249;42.690;23.260;2023-11-22T03:31:52;93452.31;;;6.54;100.00
6433;BME280;3249;42.690;23.260;2023-11-22T03:34:21;93454.09;;;6.53;100.00
6433;BME280;3249;42.690;23.260;2023-11-22T03:36:50;93452.28;;;6.78;100.00
6433;BME280;3249;42.690;23.260;2023-11-22T03:39:19;93453.41;;;6.82;100.00
6433;BME280;3249;42.690;23.260;2023-11-22T03:41:51;93452.41;;;6.83;100.00
6433;BME280;3249;42.690;23.260;2023-11-22T03:44:20;93447.13;;;6.96;100.00
6433;BME280;3249;42.690;23.260;2023-11-22T03:46:49;93439.97;;;6.87;100.00
6433;BME280;3249;42.690;23.260;2023-11-22T03:49:19;93439.78;;;6.70;100.00
6433;BME280;3249;42.690;23.260;2023-11-22T03:51:48;93429.69;;;6.75;100.00
6433;BME280;3249;42.690;23.260;2023-11-22T03:54:17;93445.88;;;6.87;100.00
6433;BME280;3249;42.690;23.260;2023-11-22T03:56:46;93451.25;;;6.97;100.00
6433;BME280;3249;42.690;23.260;2023-11-22T03:59:18;93454.59;;;6.98;100.00
6433;BME280;3249;42.690;23.260;2023-11-22T04:01:47;93454.06;;;6.96;100.00
6433;BME280;3249;42.690;23.260;2023-11-22T04:04:16;93457.88;;;7.05;100.00
6433;BME280;3249;42.690;23.260;2023-11-22T04:06:45;93459.66;;;7.04;100.00
6433;BME280;3249;42.690;23.260;2023-11-22T04:09:16;93457.66;;;6.70;100.00
6433;BME280;3249;42.690;23.260;2023-11-22T04:11:46;93469.91;;;6.86;100.00
6433;BME280;3249;42.690;23.260;2023-11-22T04:14:19;93471.97;;;6.96;100.00
6433;BME280;3249;42.690;23.260;2023-11-22T04:16:48;93481.25;;;7.08;100.00
6433;BME280;3249;42.690;23.260;2023-11-22T04:19:18;93480.41;;;7.14;100.00
6433;BME280;3249;42.690;23.260;2023-11-22T04:21:47;93491.75;;;7.00;100.00
6433;BME280;3249;42.690;23.260;2023-11-22T04:24:16;93494.97;;;6.78;100.00
6433;BME280;3249;42.690;23.260;2023-11-22T04:26:46;93493.19;;;6.78;100.00
6433;BME280;3249;42.690;23.260;2023-11-22T04:29:15;93499.94;;;6.73;100.00
6433;BME280;3249;42.690;23.260;2023-11-22T04:31:47;93498.50;;;6.95;100.00
6433;BME280;3249;42.690;23.260;2023-11-22T04:34:17;93492.31;;;6.66;100.00
6433;BME280;3249;42.690;23.260;2023-11-22T04:36:46;93483.31;;;6.39;100.00
6433;BME280;3249;42.690;23.260;2023-11-22T04:39:15;93498.34;;;6.54;100.00
6433;BME280;3249;42.690;23.260;2023-11-22T04:41:44;93502.28;;;6.74;100.00
6433;BME280;3249;42.690;23.260;2023-11-22T04:44:13;93498.66;;;6.82;100.00
6433;BME280;3249;42.690;23.260;2023-11-22T04:46:43;93500.03;;;7.02;100.00
6433;BME280;3249;42.690;23.260;2023-11-22T04:49:15;93514.88;;;7.12;100.00
6433;BME280;3249;42.690;23.260;2023-11-22T04:51:44;93523.09;;;7.14;100.00
6433;BME280;3249;42.690;23.260;2023-11-22T04:54:13;93533.94;;;7.16;100.00
6433;BME280;3249;42.690;23.260;2023-11-22T04:56:42;93537.41;;;7.21;100.00
6433;BME280;3249;42.690;23.260;2023-11-22T04:59:11;93536.22;;;7.24;100.00
6433;BME280;3249;42.690;23.260;2023-11-22T05:01:42;93530.41;;;6.92;100.00
6433;BME280;3249;42.690;23.260;2023-11-22T05:04:11;93547.16;;;7.13;100.00
6433;BME280;3249;42.690;23.260;2023-11-22T05:06:43;93552.59;;;7.16;100.00
6433;BME280;3249;42.690;23.260;2023-11-22T05:09:12;93558.34;;;6.94;100.00
6433;BME280;3249;42.690;23.260;2023-11-22T05:11:44;93568.22;;;6.90;100.00
6433;BME280;3249;42.690;23.260;2023-11-22T05:14:13;93556.38;;;6.96;100.00
6433;BME280;3249;42.690;23.260;2023-11-22T05:16:42;93563.72;;;7.10;100.00
6433;BME280;3249;42.690;23.260;2023-11-22T05:19:11;93571.03;;;7.25;100.00
6433;BME280;3249;42.690;23.260;2023-11-22T05:21:43;93565.00;;;7.37;100.00
6433;BME280;3249;42.690;23.260;2023-11-22T05:24:12;93567.53;;;7.19;100.00
6433;BME280;3249;42.690;23.260;2023-11-22T05:26:41;93568.97;;;7.33;100.00
6433;BME280;3249;42.690;23.260;2023-11-22T05:29:10;93565.41;;;7.34;100.00
6433;BME280;3249;42.690;23.260;2023-11-22T05:31:39;93581.84;;;7.45;100.00
6433;BME280;3249;42.690;23.260;2023-11-22T05:34:08;93588.81;;;7.56;100.00
6433;BME280;3249;42.690;23.260;2023-11-22T05:36:38;93594.44;;;7.46;100.00
6433;BME280;3249;42.690;23.260;2023-11-22T05:39:10;93600.25;;;7.17;100.00
6433;BME280;3249;42.690;23.260;2023-11-22T05:41:39;93590.72;;;7.24;100.00
6433;BME280;3249;42.690;23.260;2023-11-22T05:44:08;93606.06;;;7.24;100.00
6433;BME280;3249;42.690;23.260;2023-11-22T05:46:37;93605.09;;;7.25;100.00
6433;BME280;3249;42.690;23.260;2023-11-22T05:49:07;93603.41;;;7.37;100.00
6433;BME280;3249;42.690;23.260;2023-11-22T05:51:36;93599.19;;;7.43;100.00
6433;BME280;3249;42.690;23.260;2023-11-22T05:54:06;93603.69;;;7.65;100.00
6433;BME280;3249;42.690;23.260;2023-11-22T05:56:40;93611.84;;;7.74;100.00
6433;BME280;3249;42.690;23.260;2023-11-22T05:59:10;93611.38;;;7.65;100.00
6433;BME280;3249;42.690;23.260;2023-11-22T06:01:39;93618.31;;;7.76;100.00
6433;BME280;3249;42.690;23.260;2023-11-22T06:04:08;93629.41;;;7.88;100.00
6433;BME280;3249;42.690;23.260;2023-11-22T06:06:37;93637.03;;;7.77;100.00
6433;BME280;3249;42.690;23.260;2023-11-22T06:09:06;93617.03;;;7.67;100.00
6433;BME280;3249;42.690;23.260;2023-11-22T06:11:41;93635.22;;;7.95;100.00
6433;BME280;3249;42.690;23.260;2023-11-22T06:14:11;93638.78;;;7.94;100.00
6433;BME280;3249;42.690;23.260;2023-11-22T06:16:40;93647.66;;;8.10;100.00
6433;BME280;3249;42.690;23.260;2023-11-22T06:19:09;93655.44;;;8.03;100.00
6433;BME280;3249;42.690;23.260;2023-11-22T06:21:38;93668.63;;;8.07;100.00
6433;BME280;3249;42.690;23.260;2023-11-22T06:24:07;93650.53;;;8.02;100.00
6433;BME280;3249;42.690;23.260;2023-11-22T06:26:45;93653.88;;;7.84;100.00
6433;BME280;3249;42.690;23.260;2023-11-22T06:29:16;93658.88;;;7.97;100.00
6433;BME280;3249;42.690;23.260;2023-11-22T06:31:46;93661.56;;;8.02;100.00
6433;BME280;3249;42.690;23.260;2023-11-22T06:34:15;93655.00;;;8.06;100.00
6433;BME280;3249;42.690;23.260;2023-11-22T06:36:44;93669.63;;;8.24;100.00
6433;BME280;3249;42.690;23.260;2023-11-22T06:39:14;93677.00;;;8.32;100.00
6433;BME280;3249;42.690;23.260;2023-11-22T06:41:46;93666.25;;;8.23;100.00
6433;BME280;3249;42.690;23.260;2023-11-22T06:44:15;93688.31;;;8.42;100.00
6433;BME280;3249;42.690;23.260;2023-11-22T06:46:44;93679.69;;;8.37;100.00
6433;BME280;3249;42.690;23.260;2023-11-22T06:49:13;93685.81;;;8.18;100.00
6433;BME280;3249;42.690;23.260;2023-11-22T06:51:43;93689.19;;;8.36;100.00
6433;BME280;3249;42.690;23.260;2023-11-22T06:54:12;93685.19;;;8.40;100.00
6433;BME280;3249;42.690;23.260;2023-11-22T06:56:41;93675.09;;;8.09;100.00
6433;BME280;3249;42.690;23.260;2023-11-22T06:59:14;93678.50;;;8.03;100.00
6433;BME280;3249;42.690;23.260;2023-11-22T07:01:43;93692.25;;;8.27;100.00
6433;BME280;3249;42.690;23.260;2023-11-22T07:04:13;93699.66;;;8.35;100.00
6433;BME280;3249;42.690;23.260;2023-11-22T07:06:42;93691.47;;;8.26;100.00
6433;BME280;3249;42.690;23.260;2023-11-22T07:09:11;93708.91;;;8.36;100.00
6433;BME280;3249;42.690;23.260;2023-11-22T07:11:40;93706.84;;;8.44;100.00
6433;BME280;3249;42.690;23.260;2023-11-22T07:14:10;93685.91;;;8.29;100.00
6433;BME280;3249;42.690;23.260;2023-11-22T07:16:42;93709.09;;;8.52;100.00
6433;BME280;3249;42.690;23.260;2023-11-22T07:19:11;93709.44;;;8.56;100.00
6433;BME280;3249;42.690;23.260;2023-11-22T07:21:41;93705.66;;;8.58;100.00
6433;BME280;3249;42.690;23.260;2023-11-22T07:24:10;93707.50;;;8.51;100.00
6433;BME280;3249;42.690;23.260;2023-11-22T07:26:41;93712.63;;;8.51;100.00
6433;BME280;3249;42.690;23.260;2023-11-22T07:29:11;93723.22;;;8.73;100.00
6433;BME280;3249;42.690;23.260;2023-11-22T07:31:42;93726.59;;;8.85;100.00
6433;BME280;3249;42.690;23.260;2023-11-22T07:34:12;93734.72;;;8.82;100.00
6433;BME280;3249;42.690;23.260;2023-11-22T07:36:42;93728.94;;;8.86;100.00
6433;BME280;3249;42.690;23.260;2023-11-22T07:39:11;93726.44;;;8.68;100.00
6433;BME280;3249;42.690;23.260;2023-11-22T07:41:40;93722.88;;;8.69;100.00
6433;BME280;3249;42.690;23.260;2023-11-22T07:44:09;93736.97;;;8.90;100.00
6433;BME280;3249;42.690;23.260;2023-11-22T07:46:44;93715.78;;;8.83;100.00
6433;BME280;3249;42.690;23.260;2023-11-22T07:49:13;93742.03;;;8.96;100.00
6433;BME280;3249;42.690;23.260;2023-11-22T07:51:44;93738.50;;;9.09;100.00
6433;BME280;3249;42.690;23.260;2023-11-22T07:54:15;93736.19;;;9.19;100.00
6433;BME280;3249;42.690;23.260;2023-11-22T07:56:44;93736.72;;;9.09;100.00
6433;BME280;3249;42.690;23.260;2023-11-22T07:59:13;93737.78;;;8.61;100.00
6433;BME280;3249;42.690;23.260;2023-11-22T08:01:45;93735.72;;;8.81;100.00
6433;BME280;3249;42.690;23.260;2023-11-22T08:04:15;93736.44;;;8.99;100.00
6433;BME280;3249;42.690;23.260;2023-11-22T08:06:45;93729.13;;;8.73;100.00
6433;BME280;3249;42.690;23.260;2023-11-22T08:09:15;93733.69;;;8.71;100.00
6433;BME280;3249;42.690;23.260;2023-11-22T08:11:45;93730.06;;;8.90;100.00
6433;BME280;3249;42.690;23.260;2023-11-22T08:14:15;93729.84;;;8.92;100.00
6433;BME280;3249;42.690;23.260;2023-11-22T08:16:46;93739.94;;;8.75;100.00
6433;BME280;3249;42.690;23.260;2023-11-22T08:19:15;93733.97;;;8.81;100.00
6433;BME280;3249;42.690;23.260;2023-11-22T08:21:44;93735.91;;;8.68;100.00
6433;BME280;3249;42.690;23.260;2023-11-22T08:24:14;93744.81;;;8.95;100.00
6433;BME280;3249;42.690;23.260;2023-11-22T08:26:45;93751.69;;;9.12;100.00
6433;BME280;3249;42.690;23.260;2023-11-22T08:29:14;93756.72;;;9.19;100.00
6433;BME280;3249;42.690;23.260;2023-11-22T08:31:45;93759.50;;;9.06;100.00
6433;BME280;3249;42.690;23.260;2023-11-22T08:34:16;93759.19;;;9.14;100.00
6433;BME280;3249;42.690;23.260;2023-11-22T08:36:46;93763.78;;;8.94;100.00
6433;BME280;3249;42.690;23.260;2023-11-22T08:39:15;93764.25;;;9.02;100.00
6433;BME280;3249;42.690;23.260;2023-11-22T08:41:44;93767.53;;;9.09;100.00
6433;BME280;3249;42.690;23.260;2023-11-22T08:44:15;93748.25;;;8.59;100.00
6433;BME280;3249;42.690;23.260;2023-11-22T08:46:47;93742.00;;;8.55;100.00
6433;BME280;3249;42.690;23.260;2023-11-22T08:49:16;93752.81;;;8.57;100.00
6433;BME280;3249;42.690;23.260;2023-11-22T08:51:52;93747.84;;;8.74;100.00
6433;BME280;3249;42.690;23.260;2023-11-22T08:54:21;93749.84;;;8.60;100.00
6433;BME280;3249;42.690;23.260;2023-11-22T08:56:54;93762.59;;;8.49;100.00
6433;BME280;3249;42.690;23.260;2023-11-22T08:59:26;93766.31;;;8.82;100.00
6433;BME280;3249;42.690;23.260;2023-11-22T09:01:58;93777.09;;;9.02;100.00
6433;BME280;3249;42.690;23.260;2023-11-22T09:04:28;93784.16;;;9.07;100.00
6433;BME280;3249;42.690;23.260;2023-11-22T09:06:57;93779.00;;;8.77;100.00
6433;BME280;3249;42.690;23.260;2023-11-22T09:09:26;93786.34;;;9.03;100.00
6433;BME280;3249;42.690;23.260;2023-11-22T09:11:56;93787.63;;;9.12;100.00
6433;BME280;3249;42.690;23.260;2023-11-22T09:14:26;93785.28;;;8.81;100.00
6433;BME280;3249;42.690;23.260;2023-11-22T09:16:58;93789.44;;;8.64;100.00
6433;BME280;3249;42.690;23.260;2023-11-22T09:19:32;93781.88;;;8.69;100.00
6433;BME280;3249;42.690;23.260;2023-11-22T09:22:01;93785.88;;;8.65;100.00
6433;BME280;3249;42.690;23.260;2023-11-22T09:24:32;93788.16;;;8.73;100.00
6433;BME280;3249;42.690;23.260;2023-11-22T09:27:03;93794.22;;;8.90;100.00
6433;BME280;3249;42.690;23.260;2023-11-22T09:29:36;93782.84;;;8.86;100.00
6433;BME280;3249;42.690;23.260;2023-11-22T09:32:08;93798.44;;;9.14;100.00
6433;BME280;3249;42.690;23.260;2023-11-22T09:34:38;93802.75;;;9.32;100.00
6433;BME280;3249;42.690;23.260;2023-11-22T09:37:10;93797.63;;;9.43;100.00
6433;BME280;3249;42.690;23.260;2023-11-22T09:39:40;93808.81;;;9.49;100.00
6433;BME280;3249;42.690;23.260;2023-11-22T09:42:10;93810.59;;;9.48;100.00
6433;BME280;3249;42.690;23.260;2023-11-22T09:44:40;93792.75;;;9.12;100.00
6433;BME280;3249;42.690;23.260;2023-11-22T09:47:12;93804.91;;;9.46;100.00
6433;BME280;3249;42.690;23.260;2023-11-22T09:49:47;93805.16;;;9.57;100.00
6433;BME280;3249;42.690;23.260;2023-11-22T09:52:23;93806.06;;;9.74;100.00
6433;BME280;3249;42.690;23.260;2023-11-22T09:54:56;93799.25;;;9.79;100.00
6433;BME280;3249;42.690;23.260;2023-11-22T09:57:26;93795.56;;;9.87;100.00
6433;BME280;3249;42.690;23.260;2023-11-22T09:59:57;93798.91;;;9.99;100.00
6433;BME280;3249;42.690;23.260;2023-11-22T10:02:37;93790.44;;;9.98;100.00
6433;BME280;3249;42.690;23.260;2023-11-22T10:05:07;93791.03;;;10.12;100.00
6433;BME280;3249;42.690;23.260;2023-11-22T10:07:37;93791.25;;;10.10;100.00
6433;BME280;3249;42.690;23.260;2023-11-22T10:10:07;93793.44;;;9.95;100.00
6433;BME280;3249;42.690;23.260;2023-11-22T10:12:37;93758.75;;;9.28;100.00
6433;BME280;3249;42.690;23.260;2023-11-22T10:15:13;93792.28;;;9.45;100.00
6433;BME280;3249;42.690;23.260;2023-11-22T10:17:55;93785.94;;;9.71;100.00
6433;BME280;3249;42.690;23.260;2023-11-22T10:20:37;93787.19;;;9.91;100.00
6433;BME280;3249;42.690;23.260;2023-11-22T10:23:08;93795.56;;;9.98;100.00
6433;BME280;3249;42.690;23.260;2023-11-22T10:25:43;93793.34;;;10.02;100.00
6433;BME280;3249;42.690;23.260;2023-11-22T10:28:16;93799.94;;;9.86;100.00
6433;BME280;3249;42.690;23.260;2023-11-22T10:30:46;93781.16;;;9.86;100.00
6433;BME280;3249;42.690;23.260;2023-11-22T10:33:19;93792.69;;;10.06;100.00
6433;BME280;3249;42.690;23.260;2023-11-22T10:35:50;93792.47;;;10.19;100.00
6433;BME280;3249;42.690;23.260;2023-11-22T10:38:20;93799.38;;;10.30;100.00
6433;BME280;3249;42.690;23.260;2023-11-22T10:40:50;93792.44;;;10.31;100.00
6433;BME280;3249;42.690;23.260;2023-11-22T10:43:19;93802.38;;;10.50;100.00
6433;BME280;3249;42.690;23.260;2023-11-22T10:45:53;93798.78;;;10.51;100.00
6433;BME280;3249;42.690;23.260;2023-11-22T10:48:26;93808.50;;;10.61;100.00
6433;BME280;3249;42.690;23.260;2023-11-22T10:50:57;93804.81;;;10.57;100.00
6433;BME280;3249;42.690;23.260;2023-11-22T10:53:37;93807.03;;;10.65;100.00
6433;BME280;3249;42.690;23.260;2023-11-22T10:56:12;93802.09;;;10.24;100.00
6433;BME280;3249;42.690;23.260;2023-11-22T10:58:47;93806.88;;;10.32;100.00
6433;BME280;3249;42.690;23.260;2023-11-22T11:01:17;93799.22;;;10.48;100.00
6433;BME280;3249;42.690;23.260;2023-11-22T11:03:55;93798.75;;;10.12;100.00
6433;BME280;3249;42.690;23.260;2023-11-22T11:06:30;93794.16;;;10.25;100.00
6433;BME280;3249;42.690;23.260;2023-11-22T11:09:01;93796.72;;;10.14;100.00
6433;BME280;3249;42.690;23.260;2023-11-22T11:11:33;93799.72;;;10.45;100.00
6433;BME280;3249;42.690;23.260;2023-11-22T11:14:03;93807.03;;;10.65;100.00
6433;BME280;3249;42.690;23.260;2023-11-22T11:16:38;93792.50;;;10.59;100.00
6433;BME280;3249;42.690;23.260;2023-11-22T11:19:14;93807.34;;;10.80;100.00
6433;BME280;3249;42.690;23.260;2023-11-22T11:21:44;93802.72;;;10.82;100.00
6433;BME280;3249;42.690;23.260;2023-11-22T11:24:13;93807.97;;;10.87;100.00
6433;BME280;3249;42.690;23.260;2023-11-22T11:26:48;93811.78;;;10.96;100.00
6433;BME280;3249;42.690;23.260;2023-11-22T11:29:30;93808.75;;;10.99;100.00
6433;BME280;3249;42.690;23.260;2023-11-22T11:32:02;93797.41;;;10.72;100.00
6433;BME280;3249;42.690;23.260;2023-11-22T11:34:45;93800.13;;;10.54;100.00
6433;BME280;3249;42.690;23.260;2023-11-22T11:37:19;93789.28;;;10.40;100.00
6433;BME280;3249;42.690;23.260;2023-11-22T11:39:48;93798.53;;;10.64;100.00
6433;BME280;3249;42.690;23.260;2023-11-22T11:42:18;93800.28;;;10.75;100.00
6433;BME280;3249;42.690;23.260;2023-11-22T11:45:05;93803.63;;;10.87;100.00
6433;BME280;3249;42.690;23.260;2023-11-22T11:47:36;93810.81;;;10.85;100.00
6433;BME280;3249;42.690;23.260;2023-11-22T11:50:08;93773.22;;;10.73;100.00
6433;BME280;3249;42.690;23.260;2023-11-22T11:52:38;93811.78;;;10.96;100.00
6433;BME280;3249;42.690;23.260;2023-11-22T11:55:08;93814.34;;;10.96;100.00
6433;BME280;3249;42.690;23.260;2023-11-22T11:57:37;93807.72;;;11.00;100.00
6433;BME280;3249;42.690;23.260;2023-11-22T12:00:09;93806.97;;;10.88;100.00
6433;BME280;3249;42.690;23.260;2023-11-22T12:02:40;93804.31;;;10.32;100.00
6433;BME280;3249;42.690;23.260;2023-11-22T12:05:12;93811.47;;;10.07;100.00
6433;BME280;3249;42.690;23.260;2023-11-22T12:07:41;93814.88;;;9.89;100.00
6433;BME280;3249;42.690;23.260;2023-11-22T12:10:10;93823.81;;;9.64;100.00
6433;BME280;3249;42.690;23.260;2023-11-22T12:12:39;93796.88;;;9.54;100.00
6433;BME280;3249;42.690;23.260;2023-11-22T12:15:10;93825.28;;;9.83;100.00
6433;BME280;3249;42.690;23.260;2023-11-22T12:17:40;93807.88;;;9.85;100.00
6433;BME280;3249;42.690;23.260;2023-11-22T12:20:16;93830.09;;;9.79;100.00
6433;BME280;3249;42.690;23.260;2023-11-22T12:22:48;93818.00;;;9.57;100.00
6433;BME280;3249;42.690;23.260;2023-11-22T12:25:18;93820.31;;;9.46;100.00
6433;BME280;3249;42.690;23.260;2023-11-22T12:27:48;93828.97;;;9.75;100.00
6433;BME280;3249;42.690;23.260;2023-11-22T12:30:31;93834.47;;;10.02;100.00
6433;BME280;3249;42.690;23.260;2023-11-22T12:33:01;93833.84;;;10.06;100.00
6433;BME280;3249;42.690;23.260;2023-11-22T12:35:34;93829.75;;;9.76;100.00
6433;BME280;3249;42.690;23.260;2023-11-22T12:38:05;93831.75;;;9.85;100.00
6433;BME280;3249;42.690;23.260;2023-11-22T12:40:35;93836.47;;;9.77;100.00
6433;BME280;3249;42.690;23.260;2023-11-22T12:43:04;93839.94;;;9.94;100.00
6433;BME280;3249;42.690;23.260;2023-11-22T12:45:34;93843.75;;;9.80;100.00
6433;BME280;3249;42.690;23.260;2023-11-22T12:48:20;93847.50;;;9.66;100.00
6433;BME280;3249;42.690;23.260;2023-11-22T12:50:53;93851.78;;;9.83;100.00
6433;BME280;3249;42.690;23.260;2023-11-22T12:53:23;93860.34;;;9.66;100.00
6433;BME280;3249;42.690;23.260;2023-11-22T12:55:54;93847.06;;;9.69;100.00
6433;BME280;3249;42.690;23.260;2023-11-22T12:58:25;93862.28;;;9.82;100.00
6433;BME280;3249;42.690;23.260;2023-11-22T13:00:55;93841.16;;;9.80;100.00
6433;BME280;3249;42.690;23.260;2023-11-22T13:03:27;93872.50;;;10.23;100.00
6433;BME280;3249;42.690;23.260;2023-11-22T13:06:00;93873.75;;;10.32;100.00
6433;BME280;3249;42.690;23.260;2023-11-22T13:08:30;93871.41;;;10.42;100.00
6433;BME280;3249;42.690;23.260;2023-11-22T13:11:00;93871.94;;;10.55;100.00
6433;BME280;3249;42.690;23.260;2023-11-22T13:13:30;93882.81;;;10.57;100.00
6433;BME280;3249;42.690;23.260;2023-11-22T13:16:01;93876.28;;;10.78;100.00
6433;BME280;3249;42.690;23.260;2023-11-22T13:18:31;93880.66;;;10.66;100.00
6433;BME280;3249;42.690;23.260;2023-11-22T13:21:03;93882.00;;;10.80;100.00
6433;BME280;3249;42.690;23.260;2023-11-22T13:23:32;93888.13;;;10.79;100.00
6433;BME280;3249;42.690;23.260;2023-11-22T13:26:01;93889.66;;;10.52;100.00
6433;BME280;3249;42.690;23.260;2023-11-22T13:28:32;93889.25;;;10.83;100.00
6433;BME280;3249;42.690;23.260;2023-11-22T13:31:01;93892.72;;;10.88;100.00